createdAt,value
2019-03-19T00:00:10.652Z,97164.47
2019-03-19T00:02:36.469Z,97166.18
2019-03-19T00:05:03.498Z,97178.12
2019-03-19T00:07:29.311Z,97164.98
2019-03-19T00:09:55.145Z,97169.32
2019-03-19T00:12:21.229Z,97168.86
2019-03-19T00:14:47.293Z,97167.98
2019-03-19T00:17:13.123Z,97165.98
2019-03-19T00:19:39.181Z,97170.29
2019-03-19T00:22:08.057Z,97170.86
2019-03-19T00:24:33.889Z,97188.37
2019-03-19T00:27:02.961Z,97172.06
2019-03-19T00:29:28.781Z,97166.09
2019-03-19T00:31:57.592Z,97168.17
2019-03-19T00:34:23.723Z,97190.94
2019-03-19T00:36:49.594Z,97132.00
2019-03-19T00:39:15.433Z,97176.30
2019-03-19T00:41:46.376Z,97178.76
2019-03-19T00:44:12.196Z,97176.88
2019-03-19T00:46:38.025Z,97191.15
2019-03-19T00:49:03.833Z,97177.15
2019-03-19T00:51:29.684Z,97174.05
2019-03-19T00:53:58.792Z,97178.76
2019-03-19T00:56:24.626Z,97187.00
2019-03-19T00:58:53.446Z,97174.72
2019-03-19T01:01:19.604Z,97191.38
2019-03-19T01:03:46.196Z,97176.48
2019-03-19T01:06:12.342Z,97189.66
2019-03-19T01:08:40.932Z,97179.83
2019-03-19T01:11:06.768Z,97178.44
2019-03-19T01:13:37.517Z,97173.38
2019-03-19T01:16:03.478Z,97172.09
2019-03-19T01:18:32.408Z,97170.64
2019-03-19T01:20:58.241Z,97183.84
2019-03-19T01:23:24.079Z,97178.33
2019-03-19T01:25:55.653Z,97174.47
2019-03-19T01:28:17.996Z,97174.31
2019-03-19T01:30:43.838Z,97131.65
2019-03-19T01:33:09.656Z,97178.48
2019-03-19T01:35:36.830Z,97180.57
2019-03-19T01:38:02.907Z,97185.31
2019-03-19T01:40:33.647Z,97186.68
2019-03-19T01:42:59.725Z,97186.92
2019-03-19T01:45:26.519Z,97186.34
2019-03-19T01:47:52.600Z,97182.70
2019-03-19T01:50:20.763Z,97177.23
2019-03-19T01:52:46.826Z,97186.23
2019-03-19T01:55:17.869Z,97184.47
2019-03-19T01:57:43.670Z,97187.08
2019-03-19T02:00:12.212Z,97188.70
2019-03-19T02:02:38.301Z,97189.88
2019-03-19T02:05:05.031Z,97183.34
2019-03-19T02:07:30.847Z,97179.72
2019-03-19T02:09:56.675Z,97179.72
2019-03-19T02:12:22.795Z,97182.94
2019-03-19T02:14:48.616Z,97186.77
2019-03-19T02:17:16.692Z,97193.45
2019-03-19T02:19:42.531Z,97191.59
2019-03-19T02:22:13.273Z,97192.81
2019-03-19T02:24:39.081Z,97196.27
2019-03-19T02:27:08.005Z,97196.83
2019-03-19T02:29:34.010Z,97195.44
2019-03-19T02:32:03.106Z,97197.50
2019-03-19T02:34:28.953Z,97207.25
2019-03-19T02:36:54.791Z,97202.02
2019-03-19T02:39:20.635Z,97199.31
2019-03-19T02:41:46.472Z,97193.86
2019-03-19T02:44:12.453Z,97194.69
2019-03-19T02:46:38.329Z,97222.19
2019-03-19T02:49:08.694Z,97199.30
2019-03-19T02:51:34.791Z,97195.03
2019-03-19T02:54:01.900Z,97192.47
2019-03-19T02:56:33.226Z,97223.58
2019-03-19T02:58:58.946Z,97202.18
2019-03-19T03:01:24.751Z,97210.11
2019-03-19T03:03:53.698Z,97115.91
2019-03-19T03:06:19.526Z,97229.23
2019-03-19T03:08:48.331Z,97215.98
2019-03-19T03:11:14.440Z,97205.13
2019-03-19T03:13:40.271Z,97209.39
2019-03-19T03:16:06.140Z,97210.57
2019-03-19T03:18:32.031Z,97214.56
2019-03-19T03:20:57.841Z,97222.94
2019-03-19T03:23:23.725Z,97213.99
2019-03-19T03:25:52.839Z,97209.91
2019-03-19T03:28:18.912Z,97215.30
2019-03-19T03:30:47.822Z,97216.11
2019-03-19T03:33:13.639Z,97214.45
2019-03-19T03:35:42.777Z,97220.55
2019-03-19T03:38:08.757Z,97227.70
2019-03-19T03:40:37.165Z,97233.27
2019-03-19T03:43:03.105Z,97245.41
2019-03-19T03:45:32.424Z,97238.44
2019-03-19T03:47:58.553Z,97240.18
2019-03-19T03:50:24.653Z,97239.94
2019-03-19T03:52:50.478Z,97245.45
2019-03-19T03:55:17.844Z,97248.57
2019-03-19T03:57:43.649Z,97246.12
2019-03-19T04:00:17.072Z,97245.23
2019-03-19T04:02:44.811Z,97249.09
2019-03-19T04:05:10.922Z,97255.40
2019-03-19T04:07:36.769Z,97260.28
2019-03-19T04:10:10.940Z,97266.47
2019-03-19T04:12:37.075Z,97261.81
2019-03-19T04:15:05.221Z,97192.59
2019-03-19T04:17:31.043Z,97257.30
2019-03-19T04:19:57.109Z,97265.06
2019-03-19T04:22:23.277Z,97275.33
2019-03-19T04:24:49.055Z,97273.25
2019-03-19T04:27:16.550Z,97279.27
2019-03-19T04:29:42.607Z,97274.33
2019-03-19T04:32:08.457Z,97267.02
2019-03-19T04:34:34.570Z,97284.17
2019-03-19T04:37:00.728Z,97288.26
2019-03-19T04:39:26.531Z,97292.05
2019-03-19T04:41:52.380Z,97297.08
2019-03-19T04:44:18.416Z,97299.17
2019-03-19T04:46:44.242Z,97298.36
2019-03-19T04:49:13.495Z,97308.10
2019-03-19T04:51:39.322Z,97304.03
2019-03-19T04:54:07.943Z,97309.25
2019-03-19T04:56:34.070Z,97308.69
2019-03-19T04:59:03.289Z,97309.02
2019-03-19T05:01:29.121Z,97325.20
2019-03-19T05:03:54.941Z,97310.81
2019-03-19T05:06:21.090Z,97320.03
2019-03-19T05:08:46.889Z,97316.55
2019-03-19T05:11:14.747Z,97330.30
2019-03-19T05:13:40.550Z,97323.28
2019-03-19T05:16:08.705Z,97326.52
2019-03-19T05:18:34.828Z,97337.62
2019-03-19T05:21:03.593Z,97341.73
2019-03-19T05:23:29.418Z,97343.45
2019-03-19T05:26:00.026Z,97335.33
2019-03-19T05:28:26.098Z,97341.59
2019-03-19T05:30:54.803Z,97337.88
2019-03-19T05:33:20.613Z,97346.91
2019-03-19T05:35:49.780Z,97343.16
2019-03-19T05:38:15.972Z,97346.70
2019-03-19T05:40:41.803Z,97349.14
2019-03-19T05:43:07.603Z,97357.64
2019-03-19T05:45:33.438Z,97358.38
2019-03-19T05:47:59.517Z,97360.84
2019-03-19T05:50:25.372Z,97215.53
2019-03-19T05:52:54.453Z,97364.84
2019-03-19T05:55:20.551Z,97373.41
2019-03-19T05:57:50.619Z,97372.08
2019-03-19T06:00:19.279Z,97369.35
2019-03-19T06:02:45.358Z,97352.83
2019-03-19T06:05:11.270Z,97377.80
2019-03-19T06:07:39.871Z,97379.98
2019-03-19T06:10:11.281Z,97382.98
2019-03-19T06:12:37.189Z,97382.34
2019-03-19T06:15:06.128Z,97391.14
2019-03-19T06:17:31.970Z,97394.53
2019-03-19T06:19:57.780Z,97387.23
2019-03-19T06:22:23.632Z,97388.67
2019-03-19T06:24:49.498Z,97382.66
2019-03-19T06:27:15.301Z,97336.80
2019-03-19T06:29:41.138Z,97387.98
2019-03-19T06:32:06.973Z,97391.27
2019-03-19T06:34:34.312Z,97392.27
2019-03-19T06:37:00.173Z,97398.83
2019-03-19T06:39:31.268Z,97393.77
2019-03-19T06:41:57.069Z,97391.59
2019-03-19T06:44:25.680Z,97406.95
2019-03-19T06:46:51.765Z,97419.89
2019-03-19T06:49:20.990Z,97402.91
2019-03-19T06:51:46.993Z,97415.03
2019-03-19T06:54:12.790Z,97392.17
2019-03-19T06:56:38.626Z,97398.98
2019-03-19T06:59:04.417Z,97402.72
2019-03-19T07:01:30.580Z,97410.07
2019-03-19T07:03:56.692Z,97414.50
2019-03-19T07:06:25.306Z,97410.58
2019-03-19T07:08:51.092Z,97415.25
2019-03-19T07:11:19.818Z,97420.96
2019-03-19T07:13:45.902Z,97421.52
2019-03-19T07:16:13.921Z,97419.95
2019-03-19T07:18:39.733Z,97415.98
2019-03-19T07:21:09.103Z,97420.81
2019-03-19T07:23:34.994Z,97424.23
2019-03-19T07:26:03.822Z,97425.44
2019-03-19T07:28:29.640Z,97445.92
2019-03-19T07:30:55.457Z,97432.92
2019-03-19T07:33:21.305Z,97432.45
2019-03-19T07:35:47.139Z,97428.38
2019-03-19T07:38:15.769Z,97427.39
2019-03-19T07:40:41.636Z,97426.98
2019-03-19T07:43:10.225Z,97431.52
2019-03-19T07:45:36.321Z,97443.89
2019-03-19T07:48:05.459Z,97440.95
2019-03-19T07:50:31.502Z,97447.69
2019-03-19T07:53:00.419Z,97431.89
2019-03-19T07:55:26.256Z,97437.78
2019-03-19T07:57:55.294Z,97439.45
2019-03-19T08:00:21.826Z,97451.88
2019-03-19T08:02:50.695Z,97442.41
2019-03-19T08:05:16.914Z,97449.97
2019-03-19T08:07:42.906Z,97454.86
2019-03-19T08:10:14.216Z,97451.54
2019-03-19T08:12:40.058Z,97453.62
2019-03-19T08:15:30.742Z,97458.89
2019-03-19T08:17:56.572Z,97465.42
2019-03-19T08:20:22.412Z,97458.08
2019-03-19T08:22:48.479Z,97453.08
2019-03-19T08:25:15.410Z,97461.39
2019-03-19T08:27:41.227Z,97471.81
2019-03-19T08:30:17.514Z,97466.95
2019-03-19T08:32:43.415Z,97463.39
2019-03-19T08:35:09.334Z,97467.44
2019-03-19T08:37:35.206Z,97468.07
2019-03-19T08:40:01.032Z,97464.14
2019-03-19T08:42:27.108Z,97462.65
2019-03-19T08:44:53.013Z,97461.01
2019-03-19T08:47:19.218Z,97466.78
2019-03-19T08:49:45.314Z,97456.50
2019-03-19T08:52:11.144Z,97456.98
2019-03-19T08:54:36.954Z,97457.88
2019-03-19T08:57:02.915Z,97455.14
2019-03-19T08:59:29.125Z,97466.00
2019-03-19T09:01:54.979Z,97470.23
2019-03-19T09:04:22.655Z,97475.78
2019-03-19T09:06:48.511Z,97474.78
2019-03-19T09:09:14.459Z,97465.55
2019-03-19T09:11:40.291Z,97468.91
2019-03-19T09:14:06.388Z,97473.73
2019-03-19T09:16:32.193Z,97476.78
2019-03-19T09:18:58.326Z,97477.60
2019-03-19T09:21:24.147Z,97477.06
2019-03-19T09:23:49.942Z,97483.45
2019-03-19T09:26:16.064Z,97483.41
2019-03-19T09:28:41.913Z,97493.46
2019-03-19T09:31:07.736Z,97488.58
2019-03-19T09:33:33.535Z,97484.83
2019-03-19T09:35:59.632Z,97488.71
2019-03-19T09:38:25.471Z,97489.45
2019-03-19T09:40:51.270Z,97489.43
2019-03-19T09:43:17.130Z,97484.94
2019-03-19T09:45:42.956Z,97490.23
2019-03-19T09:48:10.199Z,97486.33
2019-03-19T09:50:36.318Z,97480.64
2019-03-19T09:53:04.897Z,97449.65
2019-03-19T09:55:30.743Z,97497.19
2019-03-19T09:57:56.578Z,97486.70
2019-03-19T10:00:22.755Z,97481.17
2019-03-19T10:02:48.778Z,97483.33
2019-03-19T10:05:18.148Z,97486.19
2019-03-19T10:07:44.110Z,97277.68
2019-03-19T10:10:21.829Z,97482.97
2019-03-19T10:12:47.705Z,97491.78
2019-03-19T10:15:14.227Z,97494.09
2019-03-19T10:17:40.367Z,97492.47
2019-03-19T10:20:17.896Z,97492.93
2019-03-19T10:22:44.146Z,97495.16
2019-03-19T10:25:14.526Z,97495.45
2019-03-19T10:27:40.349Z,97500.29
2019-03-19T10:30:16.050Z,97488.86
2019-03-19T10:32:42.849Z,97497.73
2019-03-19T10:35:08.890Z,97500.12
2019-03-19T10:37:34.968Z,97504.31
2019-03-19T10:40:00.790Z,97495.61
2019-03-19T10:42:26.615Z,97494.34
2019-03-19T10:44:52.426Z,97506.72
2019-03-19T10:47:18.278Z,97506.44
2019-03-19T10:49:44.076Z,97508.35
2019-03-19T10:52:09.925Z,97500.98
2019-03-19T10:54:35.751Z,97502.41
2019-03-19T10:57:01.577Z,97503.56
2019-03-19T10:59:27.392Z,97512.73
2019-03-19T11:01:53.253Z,97504.92
2019-03-19T11:04:19.083Z,97506.93
2019-03-19T11:06:45.024Z,97503.95
2019-03-19T11:09:11.133Z,97501.58
2019-03-19T11:11:37.283Z,97508.48
2019-03-19T11:14:03.374Z,97504.73
2019-03-19T11:16:29.194Z,97505.86
2019-03-19T11:18:55.097Z,97501.94
2019-03-19T11:21:21.157Z,97498.97
2019-03-19T11:23:47.263Z,97498.22
2019-03-19T11:26:13.123Z,97499.72
2019-03-19T11:28:38.934Z,97498.86
2019-03-19T11:31:04.766Z,97491.44
2019-03-19T11:33:33.755Z,97483.37
2019-03-19T11:35:59.858Z,97503.55
2019-03-19T11:38:28.785Z,97497.30
2019-03-19T11:40:54.729Z,97499.92
2019-03-19T11:43:20.571Z,97498.77
2019-03-19T11:45:46.709Z,97496.16
2019-03-19T11:48:12.545Z,97491.05
2019-03-19T11:50:38.362Z,97489.28
2019-03-19T11:53:04.294Z,97490.41
2019-03-19T11:55:33.164Z,97493.34
2019-03-19T11:57:59.143Z,97495.88
2019-03-19T12:00:54.551Z,97462.75
2019-03-19T12:03:20.399Z,97494.70
2019-03-19T12:05:46.462Z,97490.27
2019-03-19T12:08:12.327Z,97492.43
2019-03-19T12:10:38.170Z,97499.97
2019-03-19T12:13:04.292Z,97497.50
2019-03-19T12:15:30.626Z,97505.22
2019-03-19T12:17:56.478Z,97504.05
2019-03-19T12:20:22.559Z,97509.95
2019-03-19T12:22:48.657Z,97500.80
2019-03-19T12:25:14.830Z,97501.18
2019-03-19T12:27:40.842Z,97504.73
2019-03-19T12:30:22.077Z,97500.98
2019-03-19T12:32:44.676Z,97499.30
2019-03-19T12:35:11.566Z,97492.83
2019-03-19T12:37:37.634Z,97491.51
2019-03-19T12:40:07.041Z,97484.58
2019-03-19T12:42:32.881Z,97480.17
2019-03-19T12:44:58.998Z,97477.22
2019-03-19T12:47:24.872Z,97474.23
2019-03-19T12:49:50.676Z,97462.23
2019-03-19T12:52:16.527Z,97462.39
2019-03-19T12:54:42.610Z,97467.93
2019-03-19T12:57:08.732Z,97467.45
2019-03-19T12:59:34.573Z,97472.20
2019-03-19T13:02:00.396Z,97472.20
2019-03-19T13:04:26.242Z,97488.09
2019-03-19T13:06:52.067Z,97468.91
2019-03-19T13:09:17.899Z,97470.91
2019-03-19T13:11:43.717Z,97473.39
2019-03-19T13:14:09.554Z,97472.01
2019-03-19T13:16:35.331Z,97465.98
2019-03-19T13:19:01.212Z,97472.84
2019-03-19T13:21:27.014Z,97476.22
2019-03-19T13:23:52.832Z,97472.84
2019-03-19T13:26:18.756Z,97474.78
2019-03-19T13:28:44.597Z,97466.59
2019-03-19T13:31:10.396Z,97468.88
2019-03-19T13:33:36.264Z,97467.72
2019-03-19T13:36:02.564Z,97465.75
2019-03-19T13:38:28.648Z,97466.94
2019-03-19T13:40:54.477Z,97469.85
2019-03-19T13:43:20.285Z,97473.02
2019-03-19T13:45:46.122Z,97472.05
2019-03-19T13:48:12.005Z,97466.85
2019-03-19T13:50:37.778Z,97473.33
2019-03-19T13:53:03.607Z,97473.53
2019-03-19T13:55:29.523Z,97472.59
2019-03-19T13:57:55.361Z,97483.73
2019-03-19T14:00:21.181Z,97483.48
2019-03-19T14:02:47.014Z,97480.34
2019-03-19T14:05:13.468Z,97478.23
2019-03-19T14:07:39.713Z,97474.00
2019-03-19T14:10:09.240Z,97485.47
2019-03-19T14:12:35.356Z,97479.22
2019-03-19T14:15:01.316Z,97487.96
2019-03-19T14:17:27.451Z,97487.70
2019-03-19T14:19:53.285Z,97490.54
2019-03-19T14:22:19.186Z,97484.28
2019-03-19T14:24:45.213Z,97490.36
2019-03-19T14:27:11.060Z,97488.13
2019-03-19T14:29:36.863Z,97481.91
2019-03-19T14:32:04.023Z,97474.88
2019-03-19T14:34:30.117Z,97482.85
2019-03-19T14:36:56.185Z,97487.72
2019-03-19T14:39:22.291Z,97484.52
2019-03-19T14:41:48.150Z,97483.57
2019-03-19T14:44:13.985Z,97483.57
2019-03-19T14:46:40.076Z,97492.73
2019-03-19T14:49:05.951Z,97490.91
2019-03-19T14:51:32.009Z,97490.91
2019-03-19T14:53:57.866Z,97497.08
2019-03-19T14:56:23.975Z,97497.08
2019-03-19T14:58:50.055Z,97498.27
2019-03-19T15:01:19.600Z,97498.27
2019-03-19T15:03:43.634Z,97485.55
2019-03-19T15:06:10.326Z,97496.66
2019-03-19T15:08:36.223Z,97496.66
2019-03-19T15:11:02.054Z,97488.20
2019-03-19T15:13:27.871Z,97493.55
2019-03-19T15:15:53.702Z,97492.30
2019-03-19T15:18:19.518Z,97495.13
2019-03-19T15:20:45.646Z,97500.20
2019-03-19T15:23:11.487Z,97496.02
2019-03-19T15:25:37.369Z,97498.17
2019-03-19T15:28:06.523Z,97510.50
2019-03-19T15:30:32.746Z,97497.73
2019-03-19T15:33:01.576Z,97494.94
2019-03-19T15:35:27.391Z,97496.68
2019-03-19T15:37:55.975Z,97496.89
2019-03-19T15:40:21.804Z,97505.56
2019-03-19T15:42:50.406Z,97492.48
2019-03-19T15:45:18.851Z,97509.23
2019-03-19T15:47:44.723Z,97493.16
2019-03-19T15:50:12.529Z,97496.98
2019-03-19T15:52:38.340Z,97503.75
2019-03-19T15:55:05.530Z,97508.75
2019-03-19T15:57:31.319Z,97508.81
2019-03-19T15:59:57.435Z,97518.80
2019-03-19T16:02:23.266Z,97519.13
2019-03-19T16:04:52.038Z,97527.31
2019-03-19T16:07:17.876Z,97524.98
2019-03-19T16:09:46.462Z,97522.13
2019-03-19T16:12:12.279Z,97526.06
2019-03-19T16:14:40.855Z,97521.72
2019-03-19T16:17:06.684Z,97526.69
2019-03-19T16:19:34.740Z,97528.86
2019-03-19T16:22:00.845Z,97534.28
2019-03-19T16:24:26.957Z,97531.62
2019-03-19T16:26:52.761Z,97539.41
2019-03-19T16:29:18.570Z,97544.44
2019-03-19T16:31:51.163Z,97545.95
2019-03-19T16:34:14.889Z,97565.68
2019-03-19T16:36:43.919Z,97552.28
2019-03-19T16:39:09.836Z,97560.77
2019-03-19T16:41:39.068Z,97561.26
2019-03-19T16:44:05.179Z,97564.97
2019-03-19T16:46:31.295Z,97563.06
2019-03-19T16:48:57.391Z,97573.09
2019-03-19T16:51:25.650Z,97583.14
2019-03-19T16:53:51.449Z,97581.45
2019-03-19T16:56:22.322Z,97580.45
2019-03-19T16:58:48.418Z,97579.02
2019-03-19T17:01:14.256Z,97577.49
2019-03-19T17:03:40.058Z,97592.37
2019-03-19T17:06:05.896Z,97591.47
2019-03-19T17:08:34.475Z,97604.43
2019-03-19T17:11:00.253Z,97610.41
2019-03-19T17:13:28.836Z,97605.58
2019-03-19T17:15:54.677Z,97605.70
2019-03-19T17:18:23.320Z,97608.95
2019-03-19T17:20:49.156Z,97617.08
2019-03-19T17:23:16.386Z,97618.08
2019-03-19T17:25:42.201Z,97626.87
2019-03-19T17:28:22.081Z,97630.72
2019-03-19T17:30:40.530Z,97628.50
2019-03-19T17:33:06.392Z,97637.94
2019-03-19T17:35:32.326Z,97640.77
2019-03-19T17:37:58.135Z,97649.41
2019-03-19T17:40:24.088Z,97663.34
2019-03-19T17:42:49.912Z,97649.28
2019-03-19T17:45:18.721Z,97651.59
2019-03-19T17:47:44.853Z,97668.45
2019-03-19T17:50:34.161Z,97655.59
2019-03-19T17:53:00.021Z,97672.89
2019-03-19T17:55:26.196Z,97659.84
2019-03-19T17:57:52.035Z,97660.80
2019-03-19T18:00:21.518Z,97664.73
2019-03-19T18:02:47.594Z,97673.95
2019-03-19T18:05:13.468Z,97671.83
2019-03-19T18:07:39.258Z,97684.80
2019-03-19T18:10:09.844Z,97680.66
2019-03-19T18:12:35.731Z,97685.41
2019-03-19T18:15:01.641Z,97682.36
2019-03-19T18:17:27.499Z,97692.63
2019-03-19T18:19:53.575Z,97698.06
2019-03-19T18:22:19.409Z,97696.91
2019-03-19T18:24:45.489Z,97701.44
2019-03-19T18:27:11.369Z,97708.91
2019-03-19T18:29:37.418Z,97714.77
2019-03-19T18:32:03.531Z,97712.67
2019-03-19T18:34:29.345Z,97720.33
2019-03-19T18:36:55.138Z,97729.41
2019-03-19T18:39:21.269Z,97725.73
2019-03-19T18:41:47.134Z,97726.62
2019-03-19T18:44:12.953Z,97729.45
2019-03-19T18:46:38.959Z,97725.09
2019-03-19T18:49:04.745Z,97731.73
2019-03-19T18:51:30.598Z,97739.80
2019-03-19T18:53:56.440Z,97736.30
2019-03-19T18:56:22.397Z,97744.39
2019-03-19T18:58:48.245Z,97741.59
2019-03-19T19:01:14.052Z,97751.52
2019-03-19T19:03:42.697Z,97753.10
2019-03-19T19:06:08.496Z,97746.23
2019-03-19T19:08:38.066Z,97755.91
2019-03-19T19:11:03.910Z,97769.78
2019-03-19T19:13:32.779Z,97757.97
2019-03-19T19:15:58.619Z,97774.42
2019-03-19T19:18:28.165Z,97756.78
2019-03-19T19:20:53.975Z,97759.63
2019-03-19T19:23:22.870Z,97761.78
2019-03-19T19:25:48.742Z,97772.52
2019-03-19T19:28:14.531Z,97771.69
2019-03-19T19:30:40.380Z,97782.16
2019-03-19T19:33:06.205Z,97783.85
2019-03-19T19:35:34.921Z,97783.09
2019-03-19T19:38:03.222Z,97783.09
2019-03-19T19:40:28.834Z,97784.08
2019-03-19T19:42:54.687Z,97789.49
2019-03-19T19:45:23.359Z,97794.09
2019-03-19T19:47:49.455Z,97789.29
2019-03-19T19:50:22.108Z,97789.13
2019-03-19T19:52:48.364Z,97796.02
2019-03-19T19:55:14.409Z,97787.89
2019-03-19T19:57:40.216Z,97791.28
2019-03-19T20:00:15.042Z,97804.14
2019-03-19T20:02:40.981Z,97788.14
2019-03-19T20:05:07.183Z,97794.42
2019-03-19T20:07:33.009Z,97796.70
2019-03-19T20:09:59.145Z,97790.98
2019-03-19T20:12:25.258Z,97791.19
2019-03-19T20:14:51.086Z,97791.70
2019-03-19T20:17:16.918Z,97785.23
2019-03-19T20:19:43.055Z,97795.29
2019-03-19T20:22:08.851Z,97798.73
2019-03-19T20:24:34.697Z,97802.88
2019-03-19T20:27:03.305Z,97816.49
2019-03-19T20:29:29.131Z,97805.28
2019-03-19T20:31:57.738Z,97801.34
2019-03-19T20:34:23.519Z,97826.55
2019-03-19T20:36:52.373Z,97798.70
2019-03-19T20:39:18.268Z,97802.78
2019-03-19T20:41:44.130Z,97803.88
2019-03-19T20:44:10.261Z,97808.33
2019-03-19T20:46:36.308Z,97811.13
2019-03-19T20:49:04.930Z,97812.00
2019-03-19T20:51:31.069Z,97829.44
2019-03-19T20:54:00.219Z,97818.73
2019-03-19T20:56:26.072Z,97827.08
2019-03-19T20:58:54.993Z,97823.30
2019-03-19T21:01:20.789Z,97842.22
2019-03-19T21:03:49.755Z,97835.69
2019-03-19T21:06:15.562Z,97844.81
2019-03-19T21:08:44.127Z,97839.36
2019-03-19T21:11:09.920Z,97853.19
2019-03-19T21:13:38.792Z,97850.64
2019-03-19T21:16:05.010Z,97865.20
2019-03-19T21:18:30.865Z,97863.30
2019-03-19T21:20:57.015Z,97859.01
2019-03-19T21:23:23.127Z,97861.50
2019-03-19T21:25:52.339Z,97860.72
2019-03-19T21:28:18.200Z,97884.39
2019-03-19T21:30:44.350Z,97866.33
2019-03-19T21:33:10.194Z,97877.44
2019-03-19T21:35:39.155Z,97873.52
2019-03-19T21:38:04.967Z,97871.98
2019-03-19T21:40:33.907Z,97868.19
2019-03-19T21:42:59.819Z,97880.73
2019-03-19T21:45:28.881Z,97881.87
2019-03-19T21:47:54.699Z,97890.97
2019-03-19T21:50:23.988Z,97876.00
2019-03-19T21:52:49.800Z,97888.48
2019-03-19T21:55:15.919Z,97886.38
2019-03-19T21:57:41.766Z,97889.44
2019-03-19T22:00:13.256Z,97887.15
2019-03-19T22:02:39.194Z,97891.61
2019-03-19T22:05:06.191Z,97892.48
2019-03-19T22:07:32.026Z,97895.00
2019-03-19T22:09:57.858Z,97891.60
2019-03-19T22:12:26.476Z,97895.72
2019-03-19T22:14:52.279Z,97920.38
2019-03-19T22:17:21.007Z,97901.98
2019-03-19T22:19:47.123Z,97903.63
2019-03-19T22:22:15.682Z,97904.39
2019-03-19T22:24:41.788Z,97900.53
2019-03-19T22:27:10.974Z,97915.08
2019-03-19T22:29:36.827Z,97903.44
2019-03-19T22:32:02.943Z,97892.98
2019-03-19T22:34:29.111Z,97914.42
2019-03-19T22:36:54.943Z,97908.30
2019-03-19T22:39:21.053Z,97908.17
2019-03-19T22:41:47.144Z,97909.88
2019-03-19T22:44:15.764Z,97911.27
2019-03-19T22:46:41.588Z,97923.38
2019-03-19T22:49:10.157Z,97910.09
2019-03-19T22:51:36.252Z,97914.02
2019-03-19T22:54:05.411Z,97917.53
2019-03-19T22:56:31.739Z,97934.63
2019-03-19T22:58:58.753Z,97925.59
2019-03-19T23:01:24.955Z,97912.42
2019-03-19T23:03:53.468Z,97919.31
2019-03-19T23:06:19.305Z,97926.11
2019-03-19T23:08:45.185Z,97917.52
2019-03-19T23:11:11.032Z,97927.39
2019-03-19T23:13:36.859Z,97927.44
2019-03-19T23:16:07.492Z,97921.48
2019-03-19T23:18:33.430Z,97927.59
2019-03-19T23:21:02.741Z,97933.80
2019-03-19T23:23:28.585Z,97951.39
2019-03-19T23:25:57.399Z,97923.14
2019-03-19T23:28:23.394Z,97942.73
2019-03-19T23:30:49.559Z,97925.58
2019-03-19T23:33:15.420Z,97952.51
2019-03-19T23:35:43.962Z,97937.03
2019-03-19T23:38:09.783Z,97935.39
2019-03-19T23:40:40.166Z,97936.69
2019-03-19T23:43:06.317Z,97937.03
2019-03-19T23:45:32.172Z,97957.50
2019-03-19T23:47:57.966Z,97939.52
2019-03-19T23:50:23.762Z,97940.03
2019-03-19T23:52:51.204Z,97938.75
2019-03-19T23:55:17.075Z,97937.51
2019-03-19T23:57:47.766Z,97952.55
